createdAt,value
2023-03-25T00:00:39.664Z,99.90
2023-03-25T00:03:09.533Z,99.90
2023-03-25T00:05:41.734Z,99.90
2023-03-25T00:08:11.132Z,99.90
2023-03-25T00:10:42.952Z,99.90
2023-03-25T00:13:14.309Z,99.90
2023-03-25T00:15:48.791Z,99.90
2023-03-25T00:18:24.175Z,99.90
2023-03-25T00:20:56.593Z,99.90
2023-03-25T00:23:24.764Z,99.90
2023-03-25T00:26:00.376Z,99.90
2023-03-25T00:28:33.306Z,99.90
2023-03-25T00:31:02.673Z,99.90
2023-03-25T00:33:31.856Z,99.90
2023-03-25T00:36:01.416Z,99.90
2023-03-25T00:38:33.587Z,99.90
2023-03-25T00:41:14.966Z,99.90
2023-03-25T00:43:49.013Z,99.90
2023-03-25T00:46:17.722Z,99.90
2023-03-25T00:48:48.105Z,99.90
2023-03-25T00:51:21.900Z,99.90
2023-03-25T00:53:53.338Z,99.90
2023-03-25T00:56:21.875Z,99.90
2023-03-25T00:58:50.447Z,99.90
2023-03-25T01:01:23.470Z,99.90
2023-03-25T01:03:57.715Z,99.90
2023-03-25T01:06:32.491Z,99.90
2023-03-25T01:09:02.498Z,99.90
2023-03-25T01:11:37.684Z,99.90
2023-03-25T01:14:08.833Z,99.90
2023-03-25T01:16:37.830Z,99.90
2023-03-25T01:19:08.750Z,99.90
2023-03-25T01:21:40.862Z,99.90
2023-03-25T01:24:14.478Z,99.90
2023-03-25T01:26:44.179Z,99.90
2023-03-25T01:29:14.036Z,99.90
2023-03-25T01:31:45.154Z,99.90
2023-03-25T01:34:14.021Z,99.90
2023-03-25T01:36:46.694Z,99.90
2023-03-25T01:39:18.718Z,99.90
2023-03-25T01:41:50.727Z,99.90
2023-03-25T01:44:57.495Z,99.90
2023-03-25T01:47:28.010Z,99.90
2023-03-25T01:50:02.061Z,99.90
2023-03-25T01:52:32.149Z,99.90
2023-03-25T01:55:01.374Z,99.90
2023-03-25T01:57:31.508Z,99.90
2023-03-25T02:00:00.213Z,99.90
2023-03-25T02:02:35.177Z,99.90
2023-03-25T02:05:10.782Z,99.90
2023-03-25T02:07:49.777Z,99.90
2023-03-25T02:10:20.880Z,99.90
2023-03-25T02:12:52.192Z,99.90
2023-03-25T02:15:21.657Z,99.90
2023-03-25T02:18:11.307Z,99.90
2023-03-25T02:21:06.213Z,99.90
2023-03-25T02:24:08.907Z,99.90
2023-03-25T02:27:00.288Z,99.90
2023-03-25T02:29:49.600Z,99.90
2023-03-25T02:32:39.344Z,99.90
2023-03-25T02:35:21.105Z,99.90
2023-03-25T02:38:18.685Z,99.90
2023-03-25T02:40:55.840Z,99.90
2023-03-25T02:43:32.196Z,99.90
2023-03-25T02:46:10.078Z,99.90
2023-03-25T02:48:49.265Z,99.90
2023-03-25T02:51:23.663Z,99.90
2023-03-25T02:53:58.406Z,99.90
2023-03-25T02:56:29.639Z,99.90
2023-03-25T02:59:04.018Z,99.90
2023-03-25T03:01:35.105Z,99.90
2023-03-25T03:04:04.298Z,99.90
2023-03-25T03:06:37.099Z,99.90
2023-03-25T03:09:39.548Z,99.90
2023-03-25T03:12:37.150Z,99.90
2023-03-25T03:15:31.585Z,99.90
2023-03-25T03:18:21.228Z,99.90
2023-03-25T03:21:07.020Z,99.90
2023-03-25T03:26:53.821Z,99.90
2023-03-25T03:29:43.633Z,99.90
2023-03-25T03:32:26.122Z,99.90
2023-03-25T03:35:24.097Z,99.90
2023-03-25T03:38:05.811Z,99.90
2023-03-25T03:40:40.675Z,99.90
2023-03-25T03:43:31.246Z,99.90
2023-03-25T03:46:06.072Z,99.90
2023-03-25T03:49:03.295Z,99.90
2023-03-25T03:51:39.142Z,99.90
2023-03-25T03:54:17.827Z,99.90
2023-03-25T03:56:55.152Z,99.90
2023-03-25T03:59:35.547Z,99.90
2023-03-25T04:02:17.150Z,99.90
2023-03-25T04:04:45.328Z,99.90
2023-03-25T04:07:19.590Z,99.90
2023-03-25T04:09:58.654Z,99.90
2023-03-25T04:12:28.178Z,99.90
2023-03-25T04:14:58.073Z,99.90
2023-03-25T04:17:25.906Z,99.90
2023-03-25T04:19:54.183Z,99.90
2023-03-25T04:22:24.220Z,99.90
2023-03-25T04:24:54.961Z,99.90
2023-03-25T04:27:24.038Z,99.90
2023-03-25T04:29:52.984Z,99.90
2023-03-25T04:32:27.803Z,99.90
2023-03-25T04:34:58.128Z,99.90
2023-03-25T04:37:26.698Z,99.90
2023-03-25T04:39:56.291Z,99.90
2023-03-25T04:42:33.090Z,99.90
2023-03-25T04:45:04.683Z,99.90
2023-03-25T04:47:45.177Z,99.90
2023-03-25T04:50:22.213Z,99.90
2023-03-25T04:52:53.415Z,99.90
2023-03-25T04:55:28.069Z,99.90
2023-03-25T04:57:58.674Z,99.90
2023-03-25T05:00:27.849Z,99.90
2023-03-25T05:03:02.049Z,99.90
2023-03-25T05:05:44.187Z,99.90
2023-03-25T05:08:18.170Z,99.90
2023-03-25T05:11:01.741Z,99.90
2023-03-25T05:13:32.528Z,99.90
2023-03-25T05:16:02.056Z,99.90
2023-03-25T05:18:36.238Z,99.90
2023-03-25T05:21:05.279Z,99.90
2023-03-25T05:23:34.248Z,99.90
2023-03-25T05:26:04.009Z,99.90
2023-03-25T05:28:44.872Z,99.90
2023-03-25T05:31:17.585Z,99.90
2023-03-25T05:33:55.479Z,99.90
2023-03-25T05:36:26.769Z,99.90
2023-03-25T05:38:58.227Z,99.90
2023-03-25T05:41:34.094Z,99.90
2023-03-25T05:44:05.453Z,99.90
2023-03-25T05:46:40.035Z,99.90
2023-03-25T05:49:18.789Z,99.90
2023-03-25T05:51:49.680Z,99.90
2023-03-25T05:54:29.462Z,99.90
2023-03-25T05:56:58.178Z,99.90
2023-03-25T05:59:28.740Z,99.90
2023-03-25T06:01:59.242Z,99.90
2023-03-25T06:04:34.159Z,99.90
2023-03-25T06:07:08.049Z,99.90
2023-03-25T06:09:46.072Z,99.90
2023-03-25T06:12:21.098Z,99.90
2023-03-25T06:14:57.293Z,99.90
2023-03-25T06:17:39.377Z,99.90
2023-03-25T06:20:25.403Z,99.90
2023-03-25T06:22:54.950Z,99.90
2023-03-25T06:25:38.200Z,99.90
2023-03-25T06:28:08.779Z,99.90
2023-03-25T06:30:38.494Z,99.90
2023-03-25T06:33:07.208Z,99.90
2023-03-25T06:35:50.583Z,99.90
2023-03-25T06:38:19.640Z,99.90
2023-03-25T06:40:48.163Z,99.90
2023-03-25T06:43:17.302Z,99.90
2023-03-25T06:45:45.927Z,99.90
2023-03-25T06:48:14.396Z,99.90
2023-03-25T06:50:48.686Z,99.90
2023-03-25T06:53:24.388Z,99.90
2023-03-25T06:55:55.634Z,99.90
2023-03-25T06:58:39.998Z,99.90
2023-03-25T07:01:24.635Z,99.90
2023-03-25T07:03:57.371Z,99.90
2023-03-25T07:06:32.542Z,99.90
2023-03-25T07:09:01.590Z,99.90
2023-03-25T07:11:39.128Z,99.90
2023-03-25T07:14:19.136Z,99.90
2023-03-25T07:16:51.893Z,99.90
2023-03-25T07:19:20.923Z,99.90
2023-03-25T07:21:50.502Z,99.90
2023-03-25T07:24:21.152Z,99.90
2023-03-25T07:26:49.273Z,99.90
2023-03-25T07:29:19.660Z,99.90
2023-03-25T07:31:51.830Z,99.90
2023-03-25T07:34:25.600Z,99.90
2023-03-25T07:36:55.746Z,99.90
2023-03-25T07:39:25.408Z,99.90
2023-03-25T07:41:57.816Z,99.90
2023-03-25T07:44:28.266Z,99.90
2023-03-25T07:46:57.099Z,99.90
2023-03-25T07:49:28.263Z,99.90
2023-03-25T07:52:03.411Z,99.90
2023-03-25T07:54:41.381Z,99.90
2023-03-25T07:57:14.228Z,99.90
2023-03-25T07:59:42.302Z,99.90
2023-03-25T08:02:14.052Z,99.90
2023-03-25T08:04:43.892Z,99.90
2023-03-25T08:07:13.145Z,99.90
2023-03-25T08:09:42.902Z,99.90
2023-03-25T08:12:12.647Z,99.90
2023-03-25T08:14:47.960Z,99.90
2023-03-25T08:17:22.992Z,99.90
2023-03-25T08:20:00.606Z,99.90
2023-03-25T08:22:34.535Z,99.90
2023-03-25T08:25:16.029Z,99.90
2023-03-25T08:27:51.951Z,99.90
2023-03-25T08:30:20.115Z,99.90
2023-03-25T08:32:54.509Z,99.90
2023-03-25T08:35:23.923Z,99.90
2023-03-25T08:37:55.170Z,99.90
2023-03-25T08:40:23.206Z,99.90
2023-03-25T08:42:51.348Z,99.90
2023-03-25T08:45:20.775Z,99.90
2023-03-25T08:47:51.202Z,99.90
2023-03-25T08:50:21.187Z,99.90
2023-03-25T08:52:51.410Z,99.90
2023-03-25T08:55:21.048Z,99.90
2023-03-25T08:57:51.558Z,99.90
2023-03-25T09:00:31.131Z,99.90
2023-03-25T09:03:02.976Z,99.90
2023-03-25T09:05:31.255Z,99.90
2023-03-25T09:07:59.341Z,99.90
2023-03-25T09:10:30.584Z,99.90
2023-03-25T09:13:00.834Z,99.90
2023-03-25T09:15:39.888Z,99.90
2023-03-25T09:18:10.909Z,99.90
2023-03-25T09:20:42.072Z,99.90
2023-03-25T09:23:10.787Z,99.90
2023-03-25T09:25:40.666Z,99.90
2023-03-25T09:28:08.716Z,99.90
2023-03-25T09:30:38.543Z,99.90
2023-03-25T09:33:24.292Z,99.90
2023-03-25T09:36:03.754Z,99.90
2023-03-25T09:38:31.972Z,99.90
2023-03-25T09:41:35.800Z,99.90
2023-03-25T09:44:23.205Z,99.90
2023-03-25T09:46:55.378Z,99.90
2023-03-25T09:49:26.344Z,99.90
2023-03-25T09:51:56.226Z,99.90
2023-03-25T09:54:26.703Z,99.90
2023-03-25T09:57:00.875Z,99.90
2023-03-25T09:59:37.811Z,99.90
2023-03-25T10:02:24.655Z,99.90
2023-03-25T10:05:13.994Z,99.90
2023-03-25T10:07:58.288Z,99.90
2023-03-25T10:10:31.953Z,99.90
2023-03-25T10:13:14.649Z,99.90
2023-03-25T10:15:47.692Z,99.90
2023-03-25T10:18:30.704Z,99.90
2023-03-25T10:21:04.926Z,99.90
2023-03-25T10:23:39.569Z,99.90
2023-03-25T10:26:16.627Z,99.90
2023-03-25T10:28:52.012Z,99.90
2023-03-25T10:31:25.446Z,99.90
2023-03-25T10:33:56.696Z,99.90
2023-03-25T10:36:32.829Z,99.90
2023-03-25T10:39:06.865Z,99.90
2023-03-25T10:41:41.264Z,99.90
2023-03-25T10:44:12.605Z,99.90
2023-03-25T10:46:51.200Z,99.90
2023-03-25T10:49:29.629Z,99.90
2023-03-25T10:52:01.066Z,99.90
2023-03-25T10:54:34.885Z,99.90
2023-03-25T10:57:09.971Z,99.90
2023-03-25T10:59:45.462Z,99.90
2023-03-25T11:02:18.491Z,99.90
2023-03-25T11:04:49.109Z,99.90
2023-03-25T11:07:23.985Z,99.90
2023-03-25T11:09:55.030Z,99.90
2023-03-25T11:12:36.748Z,99.90
2023-03-25T11:15:17.294Z,99.90
2023-03-25T11:17:55.080Z,99.90
2023-03-25T11:20:29.075Z,99.90
2023-03-25T11:23:08.773Z,99.90
2023-03-25T11:25:42.222Z,99.90
2023-03-25T11:28:18.803Z,99.90
2023-03-25T11:31:15.216Z,99.90
2023-03-25T11:33:45.501Z,99.90
2023-03-25T11:36:26.390Z,99.90
2023-03-25T11:39:03.474Z,99.90
2023-03-25T11:41:37.085Z,99.90
2023-03-25T11:44:10.203Z,99.90
2023-03-25T11:46:44.323Z,99.90
2023-03-25T11:49:21.880Z,99.90
2023-03-25T11:51:58.680Z,99.90
2023-03-25T11:54:27.848Z,99.90
2023-03-25T11:56:59.988Z,99.90
2023-03-25T11:59:34.574Z,99.90
2023-03-25T12:02:18.547Z,99.90
2023-03-25T12:05:00.689Z,99.90
2023-03-25T12:07:43.702Z,99.90
2023-03-25T12:10:34.011Z,99.90
2023-03-25T12:13:16.204Z,98.20
2023-03-25T12:15:56.182Z,97.40
2023-03-25T12:18:48.302Z,97.80
2023-03-25T12:21:40.322Z,99.20
2023-03-25T12:24:26.989Z,99.90
2023-03-25T12:27:07.565Z,99.90
2023-03-25T12:29:47.140Z,99.90
2023-03-25T12:32:31.644Z,99.90
2023-03-25T12:35:18.059Z,99.90
2023-03-25T12:38:02.064Z,99.90
2023-03-25T12:40:43.432Z,99.90
2023-03-25T12:43:21.430Z,99.90
2023-03-25T12:46:09.656Z,99.50
2023-03-25T12:49:14.276Z,99.30
2023-03-25T12:51:54.466Z,98.50
2023-03-25T12:54:41.437Z,99.90
2023-03-25T12:57:36.466Z,99.90
2023-03-25T13:00:18.979Z,99.90
2023-03-25T13:03:14.377Z,99.90
2023-03-25T13:05:51.695Z,99.90
2023-03-25T13:08:25.450Z,99.90
2023-03-25T13:11:01.542Z,99.90
2023-03-25T13:13:32.836Z,99.90
2023-03-25T13:16:07.963Z,99.90
2023-03-25T13:18:46.239Z,99.90
2023-03-25T13:21:19.304Z,96.90
2023-03-25T13:24:00.427Z,96.20
2023-03-25T13:26:32.191Z,96.70
2023-03-25T13:29:09.092Z,99.10
2023-03-25T13:31:44.363Z,99.20
2023-03-25T13:34:25.300Z,99.40
2023-03-25T13:37:05.674Z,99.90
2023-03-25T13:39:55.052Z,99.90
2023-03-25T13:42:29.164Z,99.90
2023-03-25T13:45:05.078Z,99.90
2023-03-25T13:47:39.312Z,99.90
2023-03-25T13:50:24.050Z,99.90
2023-03-25T13:53:01.550Z,97.40
2023-03-25T13:55:45.102Z,96.00
2023-03-25T13:58:42.784Z,97.60
2023-03-25T14:01:28.711Z,99.30
2023-03-25T14:04:32.077Z,96.40
2023-03-25T14:07:35.969Z,96.30
2023-03-25T14:10:29.688Z,96.30
2023-03-25T14:13:02.813Z,96.90
2023-03-25T14:15:39.516Z,96.60
2023-03-25T14:18:16.698Z,96.70
2023-03-25T14:20:53.400Z,98.10
2023-03-25T14:23:26.413Z,97.90
2023-03-25T14:25:57.628Z,95.80
2023-03-25T14:28:40.637Z,97.20
2023-03-25T14:31:22.275Z,95.50
2023-03-25T14:34:23.253Z,96.50
2023-03-25T14:37:18.189Z,94.50
2023-03-25T14:39:46.538Z,95.10
2023-03-25T14:42:28.592Z,94.20
2023-03-25T14:45:37.247Z,95.00
2023-03-25T14:48:19.474Z,94.20
2023-03-25T14:51:23.393Z,94.30
2023-03-25T14:54:00.543Z,93.70
2023-03-25T14:56:35.651Z,95.20
2023-03-25T14:59:12.744Z,96.10
2023-03-25T15:01:48.036Z,94.30
2023-03-25T15:04:25.946Z,95.20
2023-03-25T15:07:00.828Z,95.90
2023-03-25T15:09:30.938Z,94.80
2023-03-25T15:12:00.970Z,94.30
2023-03-25T15:14:33.025Z,94.60
2023-03-25T15:17:07.775Z,94.50
2023-03-25T15:20:15.831Z,94.10
2023-03-25T15:22:44.129Z,94.70
2023-03-25T15:25:18.482Z,94.50
2023-03-25T15:28:13.279Z,96.10
2023-03-25T15:31:08.263Z,94.00
2023-03-25T15:33:56.479Z,94.30
2023-03-25T15:36:47.670Z,94.20
2023-03-25T15:39:33.295Z,94.00
2023-03-25T15:42:37.331Z,93.60
2023-03-25T15:45:30.317Z,93.10
2023-03-25T15:48:27.820Z,94.90
2023-03-25T15:51:19.388Z,96.40
2023-03-25T15:54:17.152Z,95.50
2023-03-25T15:56:48.062Z,94.50
2023-03-25T15:59:30.451Z,95.50
2023-03-25T16:02:03.144Z,95.40
2023-03-25T16:04:38.967Z,95.50
2023-03-25T16:07:16.237Z,95.70
2023-03-25T16:09:48.807Z,95.10
2023-03-25T16:12:22.944Z,97.20
2023-03-25T16:14:54.161Z,95.60
2023-03-25T16:17:33.909Z,94.90
2023-03-25T16:20:07.972Z,95.70
2023-03-25T16:22:44.238Z,96.30
2023-03-25T16:25:15.857Z,96.50
2023-03-25T16:27:46.316Z,95.70
2023-03-25T16:30:24.369Z,96.60
2023-03-25T16:32:53.233Z,96.30
2023-03-25T16:35:28.970Z,97.30
2023-03-25T16:38:06.339Z,96.80
2023-03-25T16:40:40.227Z,97.00
2023-03-25T16:43:16.216Z,99.00
2023-03-25T16:45:46.814Z,98.00
2023-03-25T16:48:19.359Z,97.80
2023-03-25T16:50:47.937Z,98.10
2023-03-25T16:53:18.306Z,97.90
2023-03-25T16:55:48.880Z,98.60
2023-03-25T16:58:19.483Z,98.60
2023-03-25T17:00:50.095Z,97.10
2023-03-25T17:03:21.593Z,97.30
2023-03-25T17:06:04.601Z,98.10
2023-03-25T17:08:34.113Z,98.40
2023-03-25T17:11:05.105Z,97.60
2023-03-25T17:13:39.430Z,98.40
2023-03-25T17:16:17.729Z,98.30
2023-03-25T17:18:48.731Z,98.40
2023-03-25T17:21:26.631Z,99.40
2023-03-25T17:23:58.806Z,98.60
2023-03-25T17:26:30.075Z,99.10
2023-03-25T17:29:02.141Z,99.30
2023-03-25T17:31:34.050Z,99.70
2023-03-25T17:34:06.507Z,99.90
2023-03-25T17:36:36.415Z,99.90
2023-03-25T17:39:17.164Z,99.90
2023-03-25T17:41:45.454Z,99.90
2023-03-25T17:44:16.720Z,99.90
2023-03-25T17:46:45.143Z,99.90
2023-03-25T17:49:16.646Z,99.90
2023-03-25T17:54:15.773Z,99.90
2023-03-25T17:56:44.191Z,99.90
2023-03-25T17:59:17.587Z,99.90
2023-03-25T18:01:50.172Z,99.90
2023-03-25T18:04:22.240Z,99.90
2023-03-25T18:06:51.274Z,99.90
2023-03-25T18:09:23.376Z,99.90
2023-03-25T18:12:02.730Z,99.90
2023-03-25T18:14:39.688Z,99.90
2023-03-25T18:17:07.708Z,99.90
2023-03-25T18:19:35.676Z,99.90
2023-03-25T18:22:10.380Z,99.90
2023-03-25T18:24:48.568Z,99.90
2023-03-25T18:27:16.778Z,99.90
2023-03-25T18:29:47.508Z,99.90
2023-03-25T18:32:15.405Z,99.90
2023-03-25T18:34:43.318Z,99.90
2023-03-25T18:37:12.477Z,99.90
2023-03-25T18:39:40.609Z,99.90
2023-03-25T18:42:10.250Z,99.90
2023-03-25T18:44:38.645Z,99.90
2023-03-25T18:47:24.150Z,99.90
2023-03-25T18:49:53.162Z,99.90
2023-03-25T18:52:29.803Z,99.90
2023-03-25T18:55:04.067Z,99.90
2023-03-25T18:57:33.578Z,99.90
2023-03-25T19:00:01.485Z,99.90
2023-03-25T19:02:32.627Z,99.90
2023-03-25T19:05:01.447Z,99.90
2023-03-25T19:07:29.686Z,99.90
2023-03-25T19:10:34.706Z,99.90
2023-03-25T19:13:09.554Z,99.90
2023-03-25T19:15:47.158Z,99.90
2023-03-25T19:18:28.827Z,99.90
2023-03-25T19:21:08.622Z,99.90
2023-03-25T19:23:49.582Z,99.90
2023-03-25T19:26:21.476Z,99.90
2023-03-25T19:28:58.510Z,99.90
2023-03-25T19:31:30.941Z,99.90
2023-03-25T19:34:06.345Z,99.90
2023-03-25T19:36:53.542Z,99.90
2023-03-25T19:39:53.391Z,99.90
2023-03-25T19:42:25.052Z,99.90
2023-03-25T19:45:10.156Z,99.90
2023-03-25T19:47:45.999Z,99.90
2023-03-25T19:50:27.563Z,99.90
2023-03-25T19:53:03.122Z,99.90
2023-03-25T19:55:46.423Z,99.90
2023-03-25T19:58:21.231Z,99.90
2023-03-25T20:00:58.949Z,99.90
2023-03-25T20:03:38.722Z,99.90
2023-03-25T20:06:22.352Z,99.90
2023-03-25T20:08:55.201Z,99.90
2023-03-25T20:11:43.592Z,99.90
2023-03-25T20:14:19.988Z,99.90
2023-03-25T20:17:06.076Z,99.90
2023-03-25T20:19:45.624Z,99.90
2023-03-25T20:22:24.944Z,99.90
2023-03-25T20:24:56.002Z,99.90
2023-03-25T20:27:48.825Z,99.90
2023-03-25T20:30:28.007Z,99.90
2023-03-25T20:33:07.477Z,99.90
2023-03-25T20:35:40.828Z,99.90
2023-03-25T20:38:26.338Z,99.90
2023-03-25T20:41:06.222Z,99.90
2023-03-25T20:43:45.829Z,99.90
2023-03-25T20:46:25.869Z,99.90
2023-03-25T20:49:17.073Z,99.90
2023-03-25T20:51:48.739Z,99.90
2023-03-25T20:54:26.645Z,99.90
2023-03-25T20:57:00.604Z,99.90
2023-03-25T20:59:29.297Z,99.90
2023-03-25T21:02:03.017Z,99.90
2023-03-25T21:04:44.638Z,99.90
2023-03-25T21:07:22.735Z,99.90
2023-03-25T21:09:57.662Z,99.90
2023-03-25T21:12:52.244Z,99.90
2023-03-25T21:15:41.779Z,99.90
2023-03-25T21:18:14.953Z,99.90
2023-03-25T21:20:54.491Z,99.90
2023-03-25T21:23:32.116Z,99.90
2023-03-25T21:26:02.372Z,99.90
2023-03-25T21:28:34.188Z,99.90
2023-03-25T21:31:20.279Z,99.90
2023-03-25T21:34:02.607Z,99.90
2023-03-25T21:36:42.934Z,99.90
2023-03-25T21:39:14.081Z,99.90
2023-03-25T21:41:45.935Z,99.90
2023-03-25T21:44:24.115Z,99.90
2023-03-25T21:46:57.727Z,99.90
2023-03-25T21:49:36.404Z,99.90
2023-03-25T21:52:12.948Z,99.90
2023-03-25T21:54:49.954Z,99.90
2023-03-25T21:57:20.751Z,99.90
2023-03-25T21:59:56.279Z,99.90
2023-03-25T22:02:34.532Z,99.90
2023-03-25T22:05:10.418Z,99.90
2023-03-25T22:07:51.198Z,99.90
2023-03-25T22:10:19.894Z,99.90
2023-03-25T22:12:59.574Z,99.90
2023-03-25T22:15:52.883Z,99.90
2023-03-25T22:18:25.744Z,99.90
2023-03-25T22:21:09.734Z,99.90
2023-03-25T22:23:46.780Z,99.90
2023-03-25T22:26:20.701Z,99.90
2023-03-25T22:28:51.224Z,99.90
2023-03-25T22:31:31.717Z,99.90
2023-03-25T22:34:05.777Z,99.90
2023-03-25T22:36:51.119Z,99.90
2023-03-25T22:39:34.789Z,99.90
2023-03-25T22:42:07.118Z,99.90
2023-03-25T22:44:44.857Z,99.90
2023-03-25T22:47:18.662Z,99.90
2023-03-25T22:49:58.858Z,99.90
2023-03-25T22:52:34.749Z,99.90
2023-03-25T22:55:11.287Z,99.90
2023-03-25T22:57:43.690Z,99.90
2023-03-25T23:04:39.797Z,99.90
2023-03-25T23:07:19.573Z,99.90
2023-03-25T23:09:51.371Z,99.90
2023-03-25T23:12:25.641Z,99.90
2023-03-25T23:14:57.375Z,99.90
2023-03-25T23:17:28.713Z,99.90
2023-03-25T23:19:57.089Z,99.90
2023-03-25T23:22:27.093Z,99.90
2023-03-25T23:24:55.939Z,99.90
2023-03-25T23:27:27.060Z,99.90
2023-03-25T23:29:58.262Z,99.90
2023-03-25T23:32:26.725Z,99.90
2023-03-25T23:34:59.194Z,99.90
2023-03-25T23:37:27.660Z,99.90
2023-03-25T23:39:55.849Z,99.90
2023-03-25T23:42:34.902Z,99.90
2023-03-25T23:45:04.197Z,99.90
2023-03-25T23:47:32.707Z,99.90
2023-03-25T23:50:04.110Z,99.90
2023-03-25T23:52:33.585Z,99.90
2023-03-25T23:55:01.775Z,99.90
2023-03-25T23:57:32.215Z,99.90
